sensor_id;sensor_type;location;lat;lon;timestamp;P1;durP1;ratioP1;P2;durP2;ratioP2
6955;SDS011;50345;51.136;16.886;2023-08-31T00:00:10;7.30;;;6.67;;
6955;SDS011;50345;51.136;16.886;2023-08-31T00:02:38;10.40;;;7.15;;
6955;SDS011;50345;51.136;16.886;2023-08-31T00:05:04;7.35;;;6.65;;
6955;SDS011;50345;51.136;16.886;2023-08-31T00:07:30;8.07;;;7.30;;
6955;SDS011;50345;51.136;16.886;2023-08-31T00:09:57;8.43;;;7.22;;
6955;SDS011;50345;51.136;16.886;2023-08-31T00:12:23;7.25;;;6.63;;
6955;SDS011;50345;51.136;16.886;2023-08-31T00:14:51;9.23;;;6.50;;
6955;SDS011;50345;51.136;16.886;2023-08-31T00:17:18;8.18;;;7.38;;
6955;SDS011;50345;51.136;16.886;2023-08-31T00:19:43;6.80;;;6.20;;
6955;SDS011;50345;51.136;16.886;2023-08-31T00:22:09;8.05;;;7.22;;
6955;SDS011;50345;51.136;16.886;2023-08-31T00:24:35;7.53;;;6.83;;
6955;SDS011;50345;51.136;16.886;2023-08-31T00:27:02;8.30;;;7.50;;
6955;SDS011;50345;51.136;16.886;2023-08-31T00:29:29;7.80;;;6.50;;
6955;SDS011;50345;51.136;16.886;2023-08-31T00:31:55;8.13;;;7.10;;
6955;SDS011;50345;51.136;16.886;2023-08-31T00:34:21;8.50;;;7.72;;
6955;SDS011;50345;51.136;16.886;2023-08-31T00:36:47;6.67;;;6.07;;
6955;SDS011;50345;51.136;16.886;2023-08-31T00:39:13;7.90;;;6.90;;
6955;SDS011;50345;51.136;16.886;2023-08-31T00:41:39;8.07;;;7.30;;
6955;SDS011;50345;51.136;16.886;2023-08-31T00:44:05;7.63;;;6.87;;
6955;SDS011;50345;51.136;16.886;2023-08-31T00:46:31;6.93;;;6.23;;
6955;SDS011;50345;51.136;16.886;2023-08-31T00:48:57;9.57;;;7.05;;
6955;SDS011;50345;51.136;16.886;2023-08-31T00:51:24;13.80;;;8.10;;
6955;SDS011;50345;51.136;16.886;2023-08-31T00:53:51;7.00;;;6.30;;
6955;SDS011;50345;51.136;16.886;2023-08-31T00:56:21;6.75;;;5.53;;
6955;SDS011;50345;51.136;16.886;2023-08-31T00:58:47;7.57;;;6.85;;
6955;SDS011;50345;51.136;16.886;2023-08-31T01:09:25;7.03;;;6.35;;
6955;SDS011;50345;51.136;16.886;2023-08-31T01:14:09;7.90;;;6.35;;
6955;SDS011;50345;51.136;16.886;2023-08-31T01:16:36;7.55;;;5.47;;
6955;SDS011;50345;51.136;16.886;2023-08-31T01:19:06;6.97;;;6.25;;
6955;SDS011;50345;51.136;16.886;2023-08-31T01:21:38;5.82;;;5.00;;
6955;SDS011;50345;51.136;16.886;2023-08-31T01:24:07;6.72;;;5.90;;
6955;SDS011;50345;51.136;16.886;2023-08-31T01:26:33;5.95;;;5.40;;
6955;SDS011;50345;51.136;16.886;2023-08-31T01:28:59;8.95;;;6.15;;
6955;SDS011;50345;51.136;16.886;2023-08-31T01:31:26;5.45;;;4.88;;
6955;SDS011;50345;51.136;16.886;2023-08-31T01:33:52;5.77;;;4.47;;
6955;SDS011;50345;51.136;16.886;2023-08-31T01:36:20;5.85;;;4.75;;
6955;SDS011;50345;51.136;16.886;2023-08-31T01:38:50;6.72;;;5.30;;
6955;SDS011;50345;51.136;16.886;2023-08-31T01:41:19;5.88;;;5.35;;
6955;SDS011;50345;51.136;16.886;2023-08-31T01:43:46;7.55;;;6.60;;
6955;SDS011;50345;51.136;16.886;2023-08-31T01:46:14;5.47;;;4.97;;
6955;SDS011;50345;51.136;16.886;2023-08-31T01:48:41;5.80;;;5.20;;
6955;SDS011;50345;51.136;16.886;2023-08-31T01:51:07;8.38;;;4.95;;
6955;SDS011;50345;51.136;16.886;2023-08-31T01:53:34;6.68;;;4.93;;
6955;SDS011;50345;51.136;16.886;2023-08-31T01:56:00;6.23;;;5.63;;
6955;SDS011;50345;51.136;16.886;2023-08-31T01:58:26;5.22;;;4.72;;
6955;SDS011;50345;51.136;16.886;2023-08-31T02:00:52;5.87;;;5.30;;
6955;SDS011;50345;51.136;16.886;2023-08-31T02:03:17;7.63;;;5.13;;
6955;SDS011;50345;51.136;16.886;2023-08-31T02:05:43;6.27;;;5.30;;
6955;SDS011;50345;51.136;16.886;2023-08-31T02:08:10;5.35;;;4.93;;
6955;SDS011;50345;51.136;16.886;2023-08-31T02:10:36;5.45;;;4.95;;
6955;SDS011;50345;51.136;16.886;2023-08-31T02:13:02;5.72;;;4.72;;
6955;SDS011;50345;51.136;16.886;2023-08-31T02:15:28;5.93;;;5.30;;
6955;SDS011;50345;51.136;16.886;2023-08-31T02:17:54;4.70;;;4.30;;
6955;SDS011;50345;51.136;16.886;2023-08-31T02:20:20;4.93;;;4.53;;
6955;SDS011;50345;51.136;16.886;2023-08-31T02:22:45;5.43;;;4.40;;
6955;SDS011;50345;51.136;16.886;2023-08-31T02:25:11;8.70;;;4.63;;
6955;SDS011;50345;51.136;16.886;2023-08-31T02:27:37;4.75;;;4.35;;
6955;SDS011;50345;51.136;16.886;2023-08-31T02:30:03;5.50;;;4.97;;
6955;SDS011;50345;51.136;16.886;2023-08-31T02:32:30;5.38;;;4.97;;
6955;SDS011;50345;51.136;16.886;2023-08-31T02:34:56;6.10;;;5.63;;
6955;SDS011;50345;51.136;16.886;2023-08-31T02:37:22;6.13;;;4.73;;
6955;SDS011;50345;51.136;16.886;2023-08-31T02:39:48;6.70;;;5.13;;
6955;SDS011;50345;51.136;16.886;2023-08-31T02:42:14;4.83;;;4.43;;
6955;SDS011;50345;51.136;16.886;2023-08-31T02:44:40;5.78;;;4.50;;
6955;SDS011;50345;51.136;16.886;2023-08-31T02:47:06;4.97;;;4.53;;
6955;SDS011;50345;51.136;16.886;2023-08-31T02:49:32;7.43;;;4.85;;
6955;SDS011;50345;51.136;16.886;2023-08-31T02:51:58;5.50;;;4.90;;
6955;SDS011;50345;51.136;16.886;2023-08-31T02:54:24;6.07;;;5.10;;
6955;SDS011;50345;51.136;16.886;2023-08-31T02:56:50;5.37;;;4.87;;
6955;SDS011;50345;51.136;16.886;2023-08-31T02:59:16;6.10;;;5.53;;
6955;SDS011;50345;51.136;16.886;2023-08-31T03:01:42;6.10;;;5.60;;
6955;SDS011;50345;51.136;16.886;2023-08-31T03:04:11;7.55;;;5.60;;
6955;SDS011;50345;51.136;16.886;2023-08-31T03:06:37;6.40;;;5.90;;
6955;SDS011;50345;51.136;16.886;2023-08-31T03:09:03;7.10;;;5.67;;
6955;SDS011;50345;51.136;16.886;2023-08-31T03:11:30;5.53;;;5.13;;
6955;SDS011;50345;51.136;16.886;2023-08-31T03:13:55;5.65;;;5.13;;
6955;SDS011;50345;51.136;16.886;2023-08-31T03:16:21;5.07;;;4.40;;
6955;SDS011;50345;51.136;16.886;2023-08-31T03:18:47;7.22;;;5.50;;
6955;SDS011;50345;51.136;16.886;2023-08-31T03:21:13;5.30;;;4.90;;
6955;SDS011;50345;51.136;16.886;2023-08-31T03:23:39;5.72;;;5.30;;
6955;SDS011;50345;51.136;16.886;2023-08-31T03:26:09;5.60;;;5.10;;
6955;SDS011;50345;51.136;16.886;2023-08-31T03:28:35;5.10;;;4.70;;
6955;SDS011;50345;51.136;16.886;2023-08-31T03:31:01;5.63;;;5.10;;
6955;SDS011;50345;51.136;16.886;2023-08-31T03:33:27;11.48;;;5.28;;
6955;SDS011;50345;51.136;16.886;2023-08-31T03:35:54;7.57;;;6.07;;
6955;SDS011;50345;51.136;16.886;2023-08-31T03:38:20;6.38;;;5.75;;
6955;SDS011;50345;51.136;16.886;2023-08-31T03:40:54;6.10;;;5.50;;
6955;SDS011;50345;51.136;16.886;2023-08-31T03:43:20;6.60;;;5.65;;
6955;SDS011;50345;51.136;16.886;2023-08-31T03:45:46;7.70;;;5.67;;
6955;SDS011;50345;51.136;16.886;2023-08-31T03:48:12;6.03;;;5.45;;
6955;SDS011;50345;51.136;16.886;2023-08-31T03:50:37;6.63;;;6.13;;
6955;SDS011;50345;51.136;16.886;2023-08-31T03:53:03;5.80;;;5.30;;
6955;SDS011;50345;51.136;16.886;2023-08-31T03:55:29;6.40;;;5.80;;
6955;SDS011;50345;51.136;16.886;2023-08-31T03:57:55;8.77;;;6.20;;
6955;SDS011;50345;51.136;16.886;2023-08-31T04:00:21;6.40;;;5.63;;
6955;SDS011;50345;51.136;16.886;2023-08-31T04:02:47;6.77;;;6.17;;
6955;SDS011;50345;51.136;16.886;2023-08-31T04:05:13;6.83;;;6.17;;
6955;SDS011;50345;51.136;16.886;2023-08-31T04:07:40;6.45;;;6.05;;
6955;SDS011;50345;51.136;16.886;2023-08-31T04:10:07;7.90;;;6.30;;
6955;SDS011;50345;51.136;16.886;2023-08-31T04:12:33;5.90;;;5.50;;
6955;SDS011;50345;51.136;16.886;2023-08-31T04:14:59;6.00;;;5.50;;
6955;SDS011;50345;51.136;16.886;2023-08-31T04:17:25;6.47;;;5.87;;
6955;SDS011;50345;51.136;16.886;2023-08-31T04:19:51;7.13;;;5.73;;
6955;SDS011;50345;51.136;16.886;2023-08-31T04:22:17;6.40;;;5.87;;
6955;SDS011;50345;51.136;16.886;2023-08-31T04:24:43;7.70;;;6.93;;
6955;SDS011;50345;51.136;16.886;2023-08-31T04:27:09;5.87;;;5.47;;
6955;SDS011;50345;51.136;16.886;2023-08-31T04:29:35;8.23;;;5.77;;
6955;SDS011;50345;51.136;16.886;2023-08-31T04:32:01;6.73;;;6.23;;
6955;SDS011;50345;51.136;16.886;2023-08-31T04:34:27;6.28;;;5.78;;
6955;SDS011;50345;51.136;16.886;2023-08-31T04:36:53;7.40;;;6.80;;
6955;SDS011;50345;51.136;16.886;2023-08-31T04:39:19;7.27;;;6.10;;
6955;SDS011;50345;51.136;16.886;2023-08-31T04:41:45;6.53;;;5.90;;
6955;SDS011;50345;51.136;16.886;2023-08-31T04:44:11;8.07;;;6.20;;
6955;SDS011;50345;51.136;16.886;2023-08-31T04:46:38;5.97;;;5.40;;
6955;SDS011;50345;51.136;16.886;2023-08-31T04:49:04;6.38;;;5.80;;
6955;SDS011;50345;51.136;16.886;2023-08-31T04:51:30;6.40;;;5.78;;
6955;SDS011;50345;51.136;16.886;2023-08-31T04:53:58;9.25;;;7.90;;
6955;SDS011;50345;51.136;16.886;2023-08-31T04:56:24;8.85;;;7.88;;
6955;SDS011;50345;51.136;16.886;2023-08-31T04:58:49;8.67;;;6.97;;
6955;SDS011;50345;51.136;16.886;2023-08-31T05:01:15;9.03;;;6.90;;
6955;SDS011;50345;51.136;16.886;2023-08-31T05:03:41;6.37;;;5.80;;
6955;SDS011;50345;51.136;16.886;2023-08-31T05:06:07;6.55;;;5.95;;
6955;SDS011;50345;51.136;16.886;2023-08-31T05:08:33;6.90;;;6.20;;
6955;SDS011;50345;51.136;16.886;2023-08-31T05:10:59;6.83;;;6.23;;
6955;SDS011;50345;51.136;16.886;2023-08-31T05:13:24;6.63;;;5.33;;
6955;SDS011;50345;51.136;16.886;2023-08-31T05:15:50;6.20;;;5.60;;
6955;SDS011;50345;51.136;16.886;2023-08-31T05:18:16;5.40;;;4.90;;
6955;SDS011;50345;51.136;16.886;2023-08-31T05:20:45;8.95;;;5.95;;
6955;SDS011;50345;51.136;16.886;2023-08-31T05:23:13;6.43;;;5.90;;
6955;SDS011;50345;51.136;16.886;2023-08-31T05:25:43;7.00;;;6.13;;
6955;SDS011;50345;51.136;16.886;2023-08-31T05:28:09;7.45;;;6.78;;
6955;SDS011;50345;51.136;16.886;2023-08-31T05:30:35;7.55;;;6.78;;
6955;SDS011;50345;51.136;16.886;2023-08-31T05:33:01;8.20;;;7.40;;
6955;SDS011;50345;51.136;16.886;2023-08-31T05:35:28;8.48;;;7.60;;
6955;SDS011;50345;51.136;16.886;2023-08-31T05:37:54;7.20;;;6.53;;
6955;SDS011;50345;51.136;16.886;2023-08-31T05:40:21;9.60;;;7.35;;
6955;SDS011;50345;51.136;16.886;2023-08-31T05:42:47;7.03;;;6.28;;
6955;SDS011;50345;51.136;16.886;2023-08-31T05:45:13;8.03;;;7.30;;
6955;SDS011;50345;51.136;16.886;2023-08-31T05:47:40;9.77;;;7.30;;
6955;SDS011;50345;51.136;16.886;2023-08-31T05:50:07;7.20;;;6.55;;
6955;SDS011;50345;51.136;16.886;2023-08-31T05:52:33;7.38;;;6.80;;
6955;SDS011;50345;51.136;16.886;2023-08-31T05:54:59;10.93;;;7.23;;
6955;SDS011;50345;51.136;16.886;2023-08-31T05:57:25;7.95;;;7.15;;
6955;SDS011;50345;51.136;16.886;2023-08-31T05:59:52;8.70;;;6.30;;
6955;SDS011;50345;51.136;16.886;2023-08-31T06:02:19;6.60;;;6.10;;
6955;SDS011;50345;51.136;16.886;2023-08-31T06:04:45;6.25;;;5.65;;
6955;SDS011;50345;51.136;16.886;2023-08-31T06:07:11;7.05;;;6.43;;
6955;SDS011;50345;51.136;16.886;2023-08-31T06:09:37;7.18;;;6.55;;
6955;SDS011;50345;51.136;16.886;2023-08-31T06:12:04;6.93;;;6.32;;
6955;SDS011;50345;51.136;16.886;2023-08-31T06:14:30;8.63;;;6.53;;
6955;SDS011;50345;51.136;16.886;2023-08-31T06:16:56;7.20;;;6.60;;
6955;SDS011;50345;51.136;16.886;2023-08-31T06:19:22;8.63;;;7.73;;
6955;SDS011;50345;51.136;16.886;2023-08-31T06:21:48;9.68;;;8.68;;
6955;SDS011;50345;51.136;16.886;2023-08-31T06:24:14;8.27;;;7.40;;
6955;SDS011;50345;51.136;16.886;2023-08-31T06:26:40;9.35;;;8.20;;
6955;SDS011;50345;51.136;16.886;2023-08-31T06:29:06;10.18;;;8.45;;
6955;SDS011;50345;51.136;16.886;2023-08-31T06:31:35;8.45;;;7.65;;
6955;SDS011;50345;51.136;16.886;2023-08-31T06:34:01;9.27;;;8.48;;
6955;SDS011;50345;51.136;16.886;2023-08-31T06:36:29;9.55;;;8.30;;
6955;SDS011;50345;51.136;16.886;2023-08-31T06:38:55;8.88;;;8.18;;
6955;SDS011;50345;51.136;16.886;2023-08-31T06:41:21;9.65;;;8.65;;
6955;SDS011;50345;51.136;16.886;2023-08-31T06:43:47;9.40;;;8.37;;
6955;SDS011;50345;51.136;16.886;2023-08-31T06:46:13;9.43;;;8.63;;
6955;SDS011;50345;51.136;16.886;2023-08-31T06:48:39;12.20;;;10.60;;
6955;SDS011;50345;51.136;16.886;2023-08-31T06:51:05;15.63;;;11.70;;
6955;SDS011;50345;51.136;16.886;2023-08-31T06:53:31;15.18;;;11.45;;
6955;SDS011;50345;51.136;16.886;2023-08-31T06:55:57;12.55;;;11.45;;
6955;SDS011;50345;51.136;16.886;2023-08-31T06:58:23;13.50;;;12.10;;
6955;SDS011;50345;51.136;16.886;2023-08-31T07:00:49;12.43;;;11.23;;
6955;SDS011;50345;51.136;16.886;2023-08-31T07:03:15;14.40;;;12.30;;
6955;SDS011;50345;51.136;16.886;2023-08-31T07:05:41;13.17;;;11.87;;
6955;SDS011;50345;51.136;16.886;2023-08-31T07:08:07;13.00;;;10.17;;
6955;SDS011;50345;51.136;16.886;2023-08-31T07:10:34;13.27;;;12.00;;
6955;SDS011;50345;51.136;16.886;2023-08-31T07:13:04;11.83;;;10.73;;
6955;SDS011;50345;51.136;16.886;2023-08-31T07:15:30;13.90;;;12.60;;
6955;SDS011;50345;51.136;16.886;2023-08-31T07:17:56;14.20;;;11.87;;
6955;SDS011;50345;51.136;16.886;2023-08-31T07:20:22;13.17;;;12.07;;
6955;SDS011;50345;51.136;16.886;2023-08-31T07:22:48;12.47;;;11.30;;
6955;SDS011;50345;51.136;16.886;2023-08-31T07:25:14;14.07;;;12.70;;
6955;SDS011;50345;51.136;16.886;2023-08-31T07:27:40;17.43;;;13.70;;
6955;SDS011;50345;51.136;16.886;2023-08-31T07:30:06;12.63;;;11.50;;
6955;SDS011;50345;51.136;16.886;2023-08-31T07:32:32;14.67;;;13.10;;
6955;SDS011;50345;51.136;16.886;2023-08-31T07:34:59;16.03;;;12.90;;
6955;SDS011;50345;51.136;16.886;2023-08-31T07:37:25;14.33;;;13.03;;
6955;SDS011;50345;51.136;16.886;2023-08-31T07:39:51;10.77;;;9.90;;
6955;SDS011;50345;51.136;16.886;2023-08-31T07:42:17;12.33;;;11.13;;
6955;SDS011;50345;51.136;16.886;2023-08-31T07:44:43;10.20;;;9.30;;
6955;SDS011;50345;51.136;16.886;2023-08-31T07:47:09;11.10;;;9.33;;
6955;SDS011;50345;51.136;16.886;2023-08-31T07:49:35;9.67;;;8.83;;
6955;SDS011;50345;51.136;16.886;2023-08-31T07:52:01;10.23;;;9.33;;
6955;SDS011;50345;51.136;16.886;2023-08-31T07:54:28;10.53;;;9.73;;
6955;SDS011;50345;51.136;16.886;2023-08-31T07:56:54;12.53;;;11.33;;
6955;SDS011;50345;51.136;16.886;2023-08-31T07:59:20;10.43;;;9.40;;
6955;SDS011;50345;51.136;16.886;2023-08-31T08:01:47;9.07;;;8.27;;
6955;SDS011;50345;51.136;16.886;2023-08-31T08:04:13;9.97;;;9.07;;
6955;SDS011;50345;51.136;16.886;2023-08-31T08:06:39;9.07;;;8.23;;
6955;SDS011;50345;51.136;16.886;2023-08-31T08:09:05;11.57;;;9.90;;
6955;SDS011;50345;51.136;16.886;2023-08-31T08:11:31;7.27;;;6.63;;
6955;SDS011;50345;51.136;16.886;2023-08-31T08:13:57;6.43;;;5.93;;
6955;SDS011;50345;51.136;16.886;2023-08-31T08:16:23;5.03;;;4.73;;
6955;SDS011;50345;51.136;16.886;2023-08-31T08:18:50;6.37;;;5.97;;
6955;SDS011;50345;51.136;16.886;2023-08-31T08:21:16;10.27;;;5.97;;
6955;SDS011;50345;51.136;16.886;2023-08-31T08:23:41;5.70;;;5.27;;
6955;SDS011;50345;51.136;16.886;2023-08-31T08:26:07;5.73;;;5.30;;
6955;SDS011;50345;51.136;16.886;2023-08-31T08:28:33;5.87;;;5.13;;
6955;SDS011;50345;51.136;16.886;2023-08-31T08:31:01;4.50;;;4.20;;
6955;SDS011;50345;51.136;16.886;2023-08-31T08:33:30;4.20;;;3.60;;
6955;SDS011;50345;51.136;16.886;2023-08-31T08:35:56;4.30;;;4.00;;
6955;SDS011;50345;51.136;16.886;2023-08-31T08:38:22;4.80;;;4.40;;
6955;SDS011;50345;51.136;16.886;2023-08-31T08:40:48;4.10;;;3.70;;
6955;SDS011;50345;51.136;16.886;2023-08-31T08:43:14;4.83;;;4.43;;
6955;SDS011;50345;51.136;16.886;2023-08-31T08:45:40;4.25;;;3.95;;
6955;SDS011;50345;51.136;16.886;2023-08-31T08:48:09;5.30;;;4.20;;
6955;SDS011;50345;51.136;16.886;2023-08-31T08:50:36;4.22;;;3.05;;
6955;SDS011;50345;51.136;16.886;2023-08-31T08:53:02;2.95;;;2.75;;
6955;SDS011;50345;51.136;16.886;2023-08-31T08:55:29;2.93;;;2.67;;
6955;SDS011;50345;51.136;16.886;2023-08-31T08:57:55;3.53;;;2.70;;
6955;SDS011;50345;51.136;16.886;2023-08-31T09:00:22;2.63;;;2.43;;
6955;SDS011;50345;51.136;16.886;2023-08-31T09:02:48;3.30;;;2.60;;
6955;SDS011;50345;51.136;16.886;2023-08-31T09:05:14;4.50;;;3.27;;
6955;SDS011;50345;51.136;16.886;2023-08-31T09:07:59;3.93;;;3.27;;
6955;SDS011;50345;51.136;16.886;2023-08-31T09:10:32;3.07;;;2.77;;
6955;SDS011;50345;51.136;16.886;2023-08-31T09:12:59;3.47;;;3.17;;
6955;SDS011;50345;51.136;16.886;2023-08-31T09:15:25;3.53;;;3.20;;
6955;SDS011;50345;51.136;16.886;2023-08-31T09:17:51;2.70;;;2.50;;
6955;SDS011;50345;51.136;16.886;2023-08-31T09:20:17;3.40;;;3.10;;
6955;SDS011;50345;51.136;16.886;2023-08-31T09:22:44;3.23;;;2.90;;
6955;SDS011;50345;51.136;16.886;2023-08-31T09:25:10;3.10;;;2.80;;
6955;SDS011;50345;51.136;16.886;2023-08-31T09:27:39;2.90;;;2.70;;
6955;SDS011;50345;51.136;16.886;2023-08-31T09:30:06;3.72;;;3.20;;
6955;SDS011;50345;51.136;16.886;2023-08-31T09:32:32;3.95;;;3.60;;
6955;SDS011;50345;51.136;16.886;2023-08-31T09:34:58;3.00;;;2.80;;
6955;SDS011;50345;51.136;16.886;2023-08-31T09:37:27;3.63;;;3.33;;
6955;SDS011;50345;51.136;16.886;2023-08-31T09:39:53;4.63;;;4.23;;
6955;SDS011;50345;51.136;16.886;2023-08-31T09:42:18;5.20;;;4.30;;
6955;SDS011;50345;51.136;16.886;2023-08-31T09:44:45;6.38;;;3.70;;
6955;SDS011;50345;51.136;16.886;2023-08-31T09:47:12;5.68;;;3.90;;
6955;SDS011;50345;51.136;16.886;2023-08-31T09:49:39;4.10;;;3.70;;
6955;SDS011;50345;51.136;16.886;2023-08-31T09:52:07;5.57;;;4.00;;
6955;SDS011;50345;51.136;16.886;2023-08-31T09:54:34;3.80;;;3.50;;
6955;SDS011;50345;51.136;16.886;2023-08-31T09:57:01;6.50;;;3.90;;
6955;SDS011;50345;51.136;16.886;2023-08-31T09:59:30;4.63;;;4.23;;
6955;SDS011;50345;51.136;16.886;2023-08-31T10:01:57;4.60;;;3.53;;
6955;SDS011;50345;51.136;16.886;2023-08-31T10:04:22;6.20;;;4.73;;
6955;SDS011;50345;51.136;16.886;2023-08-31T10:06:48;4.10;;;3.80;;
6955;SDS011;50345;51.136;16.886;2023-08-31T10:09:15;4.17;;;3.87;;
6955;SDS011;50345;51.136;16.886;2023-08-31T10:11:41;7.10;;;4.40;;
6955;SDS011;50345;51.136;16.886;2023-08-31T10:14:10;4.80;;;4.43;;
6955;SDS011;50345;51.136;16.886;2023-08-31T10:16:39;3.90;;;3.60;;
6955;SDS011;50345;51.136;16.886;2023-08-31T10:19:05;4.20;;;3.90;;
6955;SDS011;50345;51.136;16.886;2023-08-31T10:21:30;4.80;;;4.30;;
6955;SDS011;50345;51.136;16.886;2023-08-31T10:23:58;5.03;;;4.60;;
6955;SDS011;50345;51.136;16.886;2023-08-31T10:26:28;4.50;;;4.20;;
6955;SDS011;50345;51.136;16.886;2023-08-31T10:28:55;3.93;;;3.63;;
6955;SDS011;50345;51.136;16.886;2023-08-31T10:31:27;4.70;;;4.40;;
6955;SDS011;50345;51.136;16.886;2023-08-31T10:33:55;4.30;;;4.00;;
6955;SDS011;50345;51.136;16.886;2023-08-31T10:36:22;4.80;;;4.40;;
6955;SDS011;50345;51.136;16.886;2023-08-31T10:41:29;7.00;;;6.50;;
6955;SDS011;50345;51.136;16.886;2023-08-31T10:43:58;6.53;;;5.90;;
6955;SDS011;50345;51.136;16.886;2023-08-31T10:46:27;5.80;;;5.13;;
6955;SDS011;50345;51.136;16.886;2023-08-31T10:48:58;3.70;;;3.40;;
6955;SDS011;50345;51.136;16.886;2023-08-31T10:51:38;7.23;;;3.43;;
6955;SDS011;50345;51.136;16.886;2023-08-31T10:56:53;5.80;;;4.23;;
6955;SDS011;50345;51.136;16.886;2023-08-31T10:59:25;7.63;;;5.10;;
6955;SDS011;50345;51.136;16.886;2023-08-31T11:02:06;4.80;;;4.00;;
6955;SDS011;50345;51.136;16.886;2023-08-31T11:04:39;7.90;;;3.60;;
6955;SDS011;50345;51.136;16.886;2023-08-31T11:07:28;5.83;;;4.17;;
6955;SDS011;50345;51.136;16.886;2023-08-31T11:10:06;4.37;;;3.87;;
6955;SDS011;50345;51.136;16.886;2023-08-31T11:12:31;5.00;;;3.40;;
6955;SDS011;50345;51.136;16.886;2023-08-31T11:14:57;2.20;;;2.10;;
6955;SDS011;50345;51.136;16.886;2023-08-31T11:17:23;3.60;;;3.30;;
6955;SDS011;50345;51.136;16.886;2023-08-31T11:19:49;3.87;;;3.47;;
6955;SDS011;50345;51.136;16.886;2023-08-31T11:22:14;3.17;;;2.97;;
6955;SDS011;50345;51.136;16.886;2023-08-31T11:24:41;2.90;;;2.63;;
6955;SDS011;50345;51.136;16.886;2023-08-31T11:27:07;3.70;;;3.40;;
6955;SDS011;50345;51.136;16.886;2023-08-31T11:29:36;3.13;;;2.83;;
6955;SDS011;50345;51.136;16.886;2023-08-31T11:32:02;3.50;;;3.20;;
6955;SDS011;50345;51.136;16.886;2023-08-31T11:34:28;3.50;;;3.30;;
6955;SDS011;50345;51.136;16.886;2023-08-31T11:36:54;4.00;;;3.03;;
6955;SDS011;50345;51.136;16.886;2023-08-31T11:39:20;3.13;;;2.93;;
6955;SDS011;50345;51.136;16.886;2023-08-31T11:41:46;4.03;;;3.73;;
6955;SDS011;50345;51.136;16.886;2023-08-31T11:44:14;3.53;;;3.13;;
6955;SDS011;50345;51.136;16.886;2023-08-31T11:46:42;3.80;;;3.43;;
6955;SDS011;50345;51.136;16.886;2023-08-31T11:49:08;2.63;;;2.43;;
6955;SDS011;50345;51.136;16.886;2023-08-31T11:51:34;2.63;;;2.43;;
6955;SDS011;50345;51.136;16.886;2023-08-31T11:54:01;4.93;;;2.70;;
6955;SDS011;50345;51.136;16.886;2023-08-31T11:56:38;4.90;;;3.10;;
6955;SDS011;50345;51.136;16.886;2023-08-31T11:59:07;4.90;;;3.10;;
6955;SDS011;50345;51.136;16.886;2023-08-31T12:01:37;3.17;;;2.97;;
6955;SDS011;50345;51.136;16.886;2023-08-31T12:04:09;5.50;;;3.37;;
6955;SDS011;50345;51.136;16.886;2023-08-31T12:06:35;4.90;;;2.60;;
6955;SDS011;50345;51.136;16.886;2023-08-31T12:09:01;5.73;;;3.60;;
6955;SDS011;50345;51.136;16.886;2023-08-31T12:11:29;3.93;;;3.40;;
6955;SDS011;50345;51.136;16.886;2023-08-31T12:13:55;3.90;;;2.70;;
6955;SDS011;50345;51.136;16.886;2023-08-31T12:16:31;4.33;;;2.50;;
6955;SDS011;50345;51.136;16.886;2023-08-31T12:19:03;3.00;;;2.80;;
6955;SDS011;50345;51.136;16.886;2023-08-31T12:21:30;4.17;;;2.93;;
6955;SDS011;50345;51.136;16.886;2023-08-31T12:23:57;4.70;;;3.10;;
6955;SDS011;50345;51.136;16.886;2023-08-31T12:26:25;3.20;;;2.83;;
6955;SDS011;50345;51.136;16.886;2023-08-31T12:28:51;3.63;;;3.07;;
6955;SDS011;50345;51.136;16.886;2023-08-31T12:31:17;4.67;;;2.70;;
6955;SDS011;50345;51.136;16.886;2023-08-31T12:33:43;6.87;;;2.60;;
6955;SDS011;50345;51.136;16.886;2023-08-31T12:36:10;3.00;;;2.80;;
6955;SDS011;50345;51.136;16.886;2023-08-31T12:38:35;3.43;;;2.47;;
6955;SDS011;50345;51.136;16.886;2023-08-31T12:41:01;2.70;;;2.50;;
6955;SDS011;50345;51.136;16.886;2023-08-31T12:43:27;2.90;;;2.37;;
6955;SDS011;50345;51.136;16.886;2023-08-31T12:45:54;4.23;;;2.37;;
6955;SDS011;50345;51.136;16.886;2023-08-31T12:48:20;3.17;;;2.10;;
6955;SDS011;50345;51.136;16.886;2023-08-31T12:50:45;2.37;;;1.70;;
6955;SDS011;50345;51.136;16.886;2023-08-31T12:53:13;4.33;;;2.70;;
6955;SDS011;50345;51.136;16.886;2023-08-31T12:55:39;3.83;;;2.53;;
6955;SDS011;50345;51.136;16.886;2023-08-31T12:58:05;3.33;;;2.30;;
6955;SDS011;50345;51.136;16.886;2023-08-31T13:00:30;7.53;;;2.13;;
6955;SDS011;50345;51.136;16.886;2023-08-31T13:02:56;4.03;;;2.40;;
6955;SDS011;50345;51.136;16.886;2023-08-31T13:05:21;2.57;;;2.37;;
6955;SDS011;50345;51.136;16.886;2023-08-31T13:07:47;2.90;;;2.40;;
6955;SDS011;50345;51.136;16.886;2023-08-31T13:10:12;5.50;;;2.07;;
6955;SDS011;50345;51.136;16.886;2023-08-31T13:12:38;2.40;;;2.17;;
6955;SDS011;50345;51.136;16.886;2023-08-31T13:15:04;2.33;;;2.13;;
6955;SDS011;50345;51.136;16.886;2023-08-31T13:17:30;3.63;;;2.90;;
6955;SDS011;50345;51.136;16.886;2023-08-31T13:19:56;3.30;;;2.40;;
6955;SDS011;50345;51.136;16.886;2023-08-31T13:22:22;2.50;;;2.13;;
6955;SDS011;50345;51.136;16.886;2023-08-31T13:24:49;3.07;;;2.33;;
6955;SDS011;50345;51.136;16.886;2023-08-31T13:27:15;4.97;;;2.53;;
6955;SDS011;50345;51.136;16.886;2023-08-31T13:29:41;5.00;;;3.87;;
6955;SDS011;50345;51.136;16.886;2023-08-31T13:32:07;4.40;;;2.90;;
6955;SDS011;50345;51.136;16.886;2023-08-31T13:34:33;3.10;;;2.80;;
6955;SDS011;50345;51.136;16.886;2023-08-31T13:37:00;3.53;;;2.30;;
6955;SDS011;50345;51.136;16.886;2023-08-31T13:39:25;2.40;;;2.20;;
6955;SDS011;50345;51.136;16.886;2023-08-31T13:41:51;4.70;;;3.10;;
6955;SDS011;50345;51.136;16.886;2023-08-31T13:44:20;5.00;;;3.07;;
6955;SDS011;50345;51.136;16.886;2023-08-31T13:46:49;4.07;;;2.63;;
6955;SDS011;50345;51.136;16.886;2023-08-31T13:49:15;3.57;;;2.67;;
6955;SDS011;50345;51.136;16.886;2023-08-31T13:51:41;4.47;;;3.00;;
6955;SDS011;50345;51.136;16.886;2023-08-31T13:54:07;3.37;;;2.73;;
6955;SDS011;50345;51.136;16.886;2023-08-31T13:56:33;4.10;;;3.10;;
6955;SDS011;50345;51.136;16.886;2023-08-31T13:58:59;3.50;;;2.60;;
6955;SDS011;50345;51.136;16.886;2023-08-31T14:01:25;1.70;;;1.60;;
6955;SDS011;50345;51.136;16.886;2023-08-31T14:03:51;2.50;;;2.23;;
6955;SDS011;50345;51.136;16.886;2023-08-31T14:06:16;3.40;;;2.60;;
6955;SDS011;50345;51.136;16.886;2023-08-31T14:08:42;4.63;;;3.43;;
6955;SDS011;50345;51.136;16.886;2023-08-31T14:11:08;3.17;;;2.87;;
6955;SDS011;50345;51.136;16.886;2023-08-31T14:13:34;4.43;;;2.90;;
6955;SDS011;50345;51.136;16.886;2023-08-31T14:16:00;7.73;;;3.23;;
6955;SDS011;50345;51.136;16.886;2023-08-31T14:18:27;4.10;;;3.03;;
6955;SDS011;50345;51.136;16.886;2023-08-31T14:20:56;2.60;;;2.40;;
6955;SDS011;50345;51.136;16.886;2023-08-31T14:23:26;2.90;;;2.17;;
6955;SDS011;50345;51.136;16.886;2023-08-31T14:25:52;2.93;;;2.17;;
6955;SDS011;50345;51.136;16.886;2023-08-31T14:28:25;3.77;;;2.80;;
6955;SDS011;50345;51.136;16.886;2023-08-31T14:30:50;2.40;;;2.20;;
6955;SDS011;50345;51.136;16.886;2023-08-31T14:33:16;2.50;;;2.30;;
6955;SDS011;50345;51.136;16.886;2023-08-31T14:35:41;3.00;;;2.80;;
6955;SDS011;50345;51.136;16.886;2023-08-31T14:38:09;2.37;;;2.27;;
6955;SDS011;50345;51.136;16.886;2023-08-31T14:40:37;2.40;;;2.30;;
6955;SDS011;50345;51.136;16.886;2023-08-31T14:43:06;2.50;;;2.30;;
6955;SDS011;50345;51.136;16.886;2023-08-31T14:45:31;2.53;;;2.33;;
6955;SDS011;50345;51.136;16.886;2023-08-31T14:47:57;1.90;;;1.80;;
6955;SDS011;50345;51.136;16.886;2023-08-31T14:50:23;3.50;;;2.13;;
6955;SDS011;50345;51.136;16.886;2023-08-31T14:52:49;3.17;;;2.47;;
6955;SDS011;50345;51.136;16.886;2023-08-31T14:55:14;3.77;;;2.50;;
6955;SDS011;50345;51.136;16.886;2023-08-31T14:57:40;3.57;;;1.73;;